Time,TemperatureF,DewpointF,PressureIn,WindDirection,WindDirectionDegrees,WindSpeedMPH,WindSpeedGustMPH,Humidity,HourlyPrecipIn,Conditions,Clouds,dailyrainin,SoftwareType,DateUTC
2013-07-08 00:00:00,69.5,68.0,29.99,SSE,161,0.0,1.0,95,0.00,,SKC,0.16,VWS V14.01,2013-07-08 04:00:00,
2013-07-08 00:01:00,69.5,68.0,29.99,SSE,161,0.0,1.0,95,0.00,,SKC,0.16,VWS V14.01,2013-07-08 04:01:00,
2013-07-08 00:02:00,69.5,68.0,29.99,SSE,161,1.0,2.0,95,0.00,,SKC,0.00,VWS V14.01,2013-07-08 04:02:00,
2013-07-08 00:07:00,69.5,68.0,29.99,SSE,161,0.0,1.0,95,0.00,,SKC,0.00,VWS V14.01,2013-07-08 04:07:00,
2013-07-08 00:12:00,69.5,68.0,29.99,SSE,161,2.0,2.0,95,0.00,,SKC,0.00,VWS V14.01,2013-07-08 04:12:00,
2013-07-08 00:17:00,69.5,68.0,29.99,SSE,161,1.0,4.0,95,0.00,,SKC,0.00,VWS V14.01,2013-07-08 04:17:00,
2013-07-08 00:23:00,69.5,68.0,29.99,SSE,161,1.0,2.0,95,0.00,,SKC,0.00,VWS V14.01,2013-07-08 04:23:00,
2013-07-08 00:28:00,69.5,68.0,29.99,SSE,161,0.0,2.0,95,0.00,,SKC,0.00,VWS V14.01,2013-07-08 04:28:00,
2013-07-08 00:30:00,69.6,68.1,29.99,SSE,161,2.0,2.0,95,0.00,,SKC,0.00,VWS V14.01,2013-07-08 04:30:00,
2013-07-08 00:33:00,69.6,68.1,29.99,SSE,155,3.0,3.0,95,0.00,,SKC,0.00,VWS V14.01,2013-07-08 04:33:00,
2013-07-08 00:38:00,69.7,68.2,30.00,NE,55,5.0,8.0,95,0.00,,SKC,0.00,VWS V14.01,2013-07-08 04:38:00,
2013-07-08 00:43:00,69.7,68.2,29.99,ENE,66,5.0,9.0,95,0.00,,SKC,0.00,VWS V14.01,2013-07-08 04:43:00,
2013-07-08 00:48:00,69.8,68.3,29.98,ESE,110,4.0,9.0,95,0.00,,SKC,0.00,VWS V14.01,2013-07-08 04:48:00,
2013-07-08 00:53:00,69.8,68.3,29.98,East,88,8.0,8.0,95,0.00,,SKC,0.00,VWS V14.01,2013-07-08 04:53:00,
2013-07-08 00:58:00,69.9,68.4,29.98,East,81,2.0,4.0,95,0.00,,SKC,0.00,VWS V14.01,2013-07-08 04:58:00,
2013-07-08 01:03:00,69.9,68.4,29.99,NE,36,4.0,4.0,95,0.00,,SKC,0.00,VWS V14.01,2013-07-08 05:03:00,
2013-07-08 01:08:00,70.1,68.6,30.01,WNW,288,11.0,14.0,95,0.08,,SKC,0.08,VWS V14.01,2013-07-08 05:08:00,
2013-07-08 01:13:00,69.9,68.4,30.03,NE,36,6.0,13.0,95,0.27,,SKC,0.27,VWS V14.01,2013-07-08 05:13:00,
2013-07-08 01:18:00,68.7,67.2,30.01,NNE,27,10.0,10.0,95,0.45,,SKC,0.45,VWS V14.01,2013-07-08 05:18:00,
2013-07-08 01:23:00,67.9,66.1,30.00,SSE,149,0.0,2.0,94,0.54,,SKC,0.54,VWS V14.01,2013-07-08 05:23:00,
2013-07-08 01:28:00,67.6,65.8,30.01,ENE,67,6.0,8.0,94,0.55,,SKC,0.55,VWS V14.01,2013-07-08 05:28:00,
2013-07-08 01:30:00,67.4,65.6,30.01,East,85,2.0,9.0,94,0.55,,SKC,0.55,VWS V14.01,2013-07-08 05:30:00,
2013-07-08 01:33:00,67.4,65.6,30.01,ESE,103,9.0,11.0,94,0.55,,SKC,0.55,VWS V14.01,2013-07-08 05:33:00,
2013-07-08 01:38:00,67.7,65.9,30.00,ESE,117,7.0,10.0,94,0.56,,SKC,0.56,VWS V14.01,2013-07-08 05:38:00,
2013-07-08 01:43:00,67.6,65.8,30.00,ESE,120,2.0,6.0,94,0.56,,SKC,0.56,VWS V14.01,2013-07-08 05:43:00,
2013-07-08 01:48:00,67.4,65.6,30.00,East,101,3.0,6.0,94,0.56,,SKC,0.56,VWS V14.01,2013-07-08 05:48:00,
2013-07-08 01:53:00,67.4,65.6,30.00,SE,128,2.0,3.0,94,0.56,,SKC,0.56,VWS V14.01,2013-07-08 05:53:00,
2013-07-08 01:58:00,67.4,65.6,30.00,SE,128,1.0,3.0,94,0.56,,SKC,0.56,VWS V14.01,2013-07-08 05:58:00,
2013-07-08 02:00:00,67.3,65.5,30.00,SSE,158,1.0,4.0,94,0.56,,SKC,0.56,VWS V14.01,2013-07-08 06:00:00,
2013-07-08 02:03:00,67.4,65.6,29.99,SSE,158,1.0,2.0,94,0.01,,SKC,0.56,VWS V14.01,2013-07-08 06:03:00,
2013-07-08 02:08:00,67.6,65.8,29.99,South,180,4.0,4.0,94,0.01,,SKC,0.56,VWS V14.01,2013-07-08 06:08:00,
2013-07-08 02:13:00,67.7,65.9,29.99,South,188,2.0,2.0,94,0.01,,SKC,0.56,VWS V14.01,2013-07-08 06:13:00,
2013-07-08 02:18:00,67.8,66.0,29.99,SSW,205,5.0,5.0,94,0.01,,SKC,0.56,VWS V14.01,2013-07-08 06:18:00,
2013-07-08 02:23:00,67.9,66.1,29.98,SSW,209,3.0,4.0,94,0.01,,SKC,0.56,VWS V14.01,2013-07-08 06:23:00,
2013-07-08 02:28:00,68.1,66.3,29.98,SSW,208,1.0,4.0,94,0.01,,SKC,0.56,VWS V14.01,2013-07-08 06:28:00,
2013-07-08 02:30:00,68.1,66.3,29.98,SSW,208,3.0,3.0,94,0.01,,SKC,0.56,VWS V14.01,2013-07-08 06:30:00,
2013-07-08 02:33:00,68.1,66.3,29.98,SSW,208,2.0,3.0,94,0.01,,SKC,0.56,VWS V14.01,2013-07-08 06:33:00,
2013-07-08 02:38:00,68.0,66.2,29.98,SSW,208,1.0,3.0,94,0.01,,SKC,0.56,VWS V14.01,2013-07-08 06:38:00,
2013-07-08 02:43:00,67.9,66.1,29.98,SSW,208,0.0,2.0,94,0.01,,SKC,0.56,VWS V14.01,2013-07-08 06:43:00,
2013-07-08 02:48:00,67.8,66.0,29.98,SSW,208,0.0,2.0,94,0.01,,SKC,0.56,VWS V14.01,2013-07-08 06:48:00,
2013-07-08 02:53:00,67.7,65.9,29.98,SSW,208,2.0,2.0,94,0.01,,SKC,0.56,VWS V14.01,2013-07-08 06:53:00,
2013-07-08 03:00:00,67.7,65.9,29.97,SSW,208,2.0,4.0,94,0.01,,SKC,0.56,VWS V14.01,2013-07-08 07:00:00,
2013-07-08 03:06:00,67.5,66.0,29.97,SSW,208,0.0,4.0,94,0.00,,,0.56,weatherlink.com 1.10,2013-07-08 07:06:00,
2013-07-08 03:23:00,66.7,65.0,29.98,SSE,157,1.0,2.0,94,0.00,,,0.56,weatherlink.com 1.10,2013-07-08 07:23:00,
2013-07-08 03:30:00,66.7,64.9,29.98,SSW,202,0.0,4.0,94,0.00,,SKC,0.56,VWS V14.01,2013-07-08 07:30:00,
2013-07-08 03:41:00,66.6,65.0,29.98,South,174,0.0,2.0,94,0.00,,,0.56,weatherlink.com 1.10,2013-07-08 07:41:00,
2013-07-08 03:57:00,66.2,65.0,29.98,South,174,0.0,1.0,94,0.00,,,0.56,weatherlink.com 1.10,2013-07-08 07:57:00,
2013-07-08 04:00:00,66.2,64.4,29.98,South,180,0.0,2.0,94,0.00,,SKC,0.56,VWS V14.01,2013-07-08 08:00:00,
2013-07-08 04:15:00,66.4,65.0,29.98,South,174,0.0,1.0,95,0.00,,,0.56,weatherlink.com 1.10,2013-07-08 08:15:00,
2013-07-08 04:30:00,66.9,65.4,29.98,South,180,0.0,4.0,95,0.00,,SKC,0.56,VWS V14.01,2013-07-08 08:30:00,
2013-07-08 04:32:00,67.0,66.0,29.98,South,182,2.0,4.0,95,0.00,,,0.56,weatherlink.com 1.10,2013-07-08 08:32:00,
2013-07-08 04:50:00,67.6,66.0,29.98,South,171,0.0,3.0,95,0.00,,,0.56,weatherlink.com 1.10,2013-07-08 08:50:00,
2013-07-08 05:00:00,67.6,66.1,29.98,South,180,1.0,6.0,95,0.00,,SKC,0.56,VWS V14.01,2013-07-08 09:00:00,
2013-07-08 05:07:00,67.6,66.0,29.98,South,171,0.0,2.0,95,0.00,,,0.56,weatherlink.com 1.10,2013-07-08 09:07:00,
2013-07-08 05:25:00,68.1,67.0,29.98,SW,226,6.0,8.0,95,0.00,,,0.56,weatherlink.com 1.10,2013-07-08 09:25:00,
2013-07-08 05:30:00,68.2,66.7,29.98,SSW,202,3.0,8.0,95,0.00,,SKC,0.56,VWS V14.01,2013-07-08 09:30:00,
2013-07-08 05:42:00,68.2,67.0,29.98,SW,231,3.0,6.0,94,0.00,,,0.56,weatherlink.com 1.10,2013-07-08 09:42:00,
2013-07-08 05:58:00,68.3,67.0,29.98,SW,230,2.0,5.0,94,0.00,,,0.56,weatherlink.com 1.10,2013-07-08 09:58:00,
2013-07-08 06:00:00,68.3,66.5,29.98,SW,225,3.0,6.0,94,0.00,,SKC,0.56,VWS V14.01,2013-07-08 10:00:00,
2013-07-08 06:16:00,68.1,66.0,29.97,SW,214,0.0,5.0,94,0.00,,,0.56,weatherlink.com 1.10,2013-07-08 10:16:00,
2013-07-08 06:33:00,67.8,66.0,29.98,SW,214,0.0,3.0,94,0.00,,,0.56,weatherlink.com 1.10,2013-07-08 10:33:00,
2013-07-08 06:51:00,67.5,66.0,29.98,South,191,0.0,2.0,94,0.00,,,0.56,weatherlink.com 1.10,2013-07-08 10:51:00,
2013-07-08 07:00:00,67.4,65.6,29.98,SW,225,0.0,2.0,94,0.00,,SKC,0.56,VWS V14.01,2013-07-08 11:00:00,
2013-07-08 07:07:00,67.5,66.0,29.99,South,191,0.0,1.0,94,0.00,,,0.56,weatherlink.com 1.10,2013-07-08 11:07:00,
2013-07-08 07:25:00,68.2,67.0,30.00,SSE,157,1.0,2.0,95,0.00,,,0.56,weatherlink.com 1.10,2013-07-08 11:25:00,
2013-07-08 07:30:00,68.5,67.0,30.00,SSE,158,0.0,3.0,95,0.00,,SKC,0.56,VWS V14.01,2013-07-08 11:30:00,
2013-07-08 07:42:00,68.9,68.0,30.00,SSE,148,0.0,5.0,95,0.00,,,0.56,weatherlink.com 1.10,2013-07-08 11:42:00,
2013-07-08 08:00:00,69.6,68.1,30.00,SSE,158,1.0,5.0,95,0.00,,SKC,0.56,VWS V14.01,2013-07-08 12:00:00,
2013-07-08 08:01:00,69.6,68.0,30.00,SSE,161,0.0,5.0,95,0.00,,,0.56,weatherlink.com 1.10,2013-07-08 12:01:00,
2013-07-08 08:17:00,70.4,69.0,30.00,South,176,2.0,7.0,94,0.00,,,0.56,weatherlink.com 1.10,2013-07-08 12:17:00,
2013-07-08 08:30:00,71.5,69.4,30.00,South,180,2.0,7.0,93,0.00,,SKC,0.56,VWS V14.01,2013-07-08 12:30:00,
2013-07-08 08:35:00,71.7,69.0,30.00,South,190,4.0,9.0,92,0.00,,,0.56,weatherlink.com 1.10,2013-07-08 12:35:00,
2013-07-08 08:52:00,73.3,70.0,30.01,SSW,194,5.0,10.0,90,0.00,,,0.56,weatherlink.com 1.10,2013-07-08 12:52:00,
2013-07-08 09:00:00,73.5,70.1,30.00,SSW,202,4.0,10.0,89,0.00,,SKC,0.56,VWS V14.01,2013-07-08 13:00:00,
2013-07-08 09:10:00,74.3,71.0,30.00,SSW,197,1.0,9.0,89,0.00,,,0.56,weatherlink.com 1.10,2013-07-08 13:10:00,
2013-07-08 09:26:00,75.4,71.0,30.00,SW,224,6.0,12.0,86,0.00,,,0.56,weatherlink.com 1.10,2013-07-08 13:26:00,
2013-07-08 09:30:00,75.4,70.9,30.00,SSW,202,4.0,12.0,86,0.00,,SKC,0.56,VWS V14.01,2013-07-08 13:30:00,
2013-07-08 09:43:00,76.3,72.0,30.00,SSW,212,3.0,10.0,86,0.00,,,0.56,weatherlink.com 1.10,2013-07-08 13:43:00,
2013-07-08 10:00:00,77.2,72.0,30.00,SSW,202,6.0,14.0,84,0.00,,SKC,0.56,VWS V14.01,2013-07-08 14:00:00,
2013-07-08 10:01:00,77.2,72.0,30.00,WSW,244,10.0,12.0,84,0.00,,,0.56,weatherlink.com 1.10,2013-07-08 14:01:00,
2013-07-08 10:18:00,78.7,73.0,30.00,SSW,212,3.0,12.0,82,0.00,,,0.56,weatherlink.com 1.10,2013-07-08 14:18:00,
2013-07-08 10:36:00,81.2,75.0,30.00,SW,234,12.0,13.0,80,0.00,,,0.56,weatherlink.com 1.10,2013-07-08 14:36:00,
2013-07-08 10:45:00,81.6,74.5,30.00,SW,218,4.0,4.0,79,0.00,,SKC,0.56,VWS V14.01,2013-07-08 14:45:00,
2013-07-08 10:50:00,81.9,74.8,30.00,SW,227,4.0,5.0,79,0.00,,SKC,0.56,VWS V14.01,2013-07-08 14:50:00,
2013-07-08 10:55:00,82.3,75.1,30.00,SW,222,2.0,6.0,79,0.00,,SKC,0.56,VWS V14.01,2013-07-08 14:55:00,
2013-07-08 11:00:00,82.0,74.5,29.99,WSW,240,6.0,8.0,78,0.00,,SKC,0.56,VWS V14.01,2013-07-08 15:00:00,
2013-07-08 11:05:00,81.6,74.1,29.99,SSW,196,9.0,10.0,78,0.00,,SKC,0.56,VWS V14.01,2013-07-08 15:05:00,
2013-07-08 11:10:00,81.2,73.7,29.99,SSW,207,6.0,11.0,78,0.00,,SKC,0.56,VWS V14.01,2013-07-08 15:10:00,
2013-07-08 11:15:00,80.8,73.3,29.99,SSW,209,9.0,10.0,78,0.00,,SKC,0.56,VWS V14.01,2013-07-08 15:15:00,
2013-07-08 11:20:00,81.0,74.2,29.99,SW,228,6.0,10.0,80,0.00,,SKC,0.56,VWS V14.01,2013-07-08 15:20:00,
2013-07-08 11:25:00,81.6,74.8,30.00,SW,223,11.0,11.0,80,0.00,,SKC,0.56,VWS V14.01,2013-07-08 15:25:00,
2013-07-08 11:30:00,82.0,74.5,30.00,SW,228,6.0,9.0,78,0.00,,SKC,0.56,VWS V14.01,2013-07-08 15:30:00,
2013-07-08 11:35:00,82.3,75.1,29.99,WSW,250,9.0,9.0,79,0.00,,SKC,0.56,VWS V14.01,2013-07-08 15:35:00,
2013-07-08 11:40:00,83.0,75.8,29.99,SW,226,5.0,10.0,79,0.00,,SKC,0.56,VWS V14.01,2013-07-08 15:40:00,
2013-07-08 11:45:00,83.8,75.8,30.00,SW,219,10.0,13.0,77,0.00,,SKC,0.56,VWS V14.01,2013-07-08 15:45:00,
2013-07-08 11:51:00,83.1,75.2,30.00,WSW,243,9.0,13.0,77,0.00,,SKC,0.56,VWS V14.01,2013-07-08 15:51:00,
2013-07-08 11:55:00,83.5,75.1,30.00,WSW,250,5.0,11.0,76,0.00,,SKC,0.56,VWS V14.01,2013-07-08 15:55:00,
2013-07-08 12:01:00,83.1,74.8,30.00,SW,235,7.0,8.0,76,0.00,,SKC,0.56,VWS V14.01,2013-07-08 16:01:00,
2013-07-08 12:06:00,83.0,74.7,30.00,SW,234,11.0,12.0,76,0.00,,SKC,0.56,VWS V14.01,2013-07-08 16:06:00,
2013-07-08 12:11:00,83.4,75.1,30.00,SSW,197,6.0,8.0,76,0.00,,SKC,0.56,VWS V14.01,2013-07-08 16:11:00,
2013-07-08 12:16:00,83.1,75.2,30.00,WSW,241,9.0,17.0,77,0.00,,SKC,0.56,VWS V14.01,2013-07-08 16:16:00,
2013-07-08 12:21:00,83.4,75.4,30.00,SW,219,7.0,7.0,77,0.00,,SKC,0.56,VWS V14.01,2013-07-08 16:21:00,
2013-07-08 12:26:00,83.8,75.4,30.00,West,265,6.0,10.0,76,0.00,,SKC,0.56,VWS V14.01,2013-07-08 16:26:00,
2013-07-08 12:31:00,83.6,74.4,30.00,SW,236,12.0,16.0,74,0.00,,SKC,0.56,VWS V14.01,2013-07-08 16:31:00,
2013-07-08 12:36:00,83.4,74.2,30.00,WSW,238,9.0,10.0,74,0.00,,SKC,0.56,VWS V14.01,2013-07-08 16:36:00,
2013-07-08 12:41:00,83.6,75.2,30.00,SW,231,11.0,11.0,76,0.00,,SKC,0.56,VWS V14.01,2013-07-08 16:41:00,
2013-07-08 12:46:00,84.0,74.8,30.00,WSW,247,11.0,11.0,74,0.00,,SKC,0.56,VWS V14.01,2013-07-08 16:46:00,
2013-07-08 12:51:00,83.7,74.1,30.00,SSW,210,10.0,12.0,73,0.00,,SKC,0.56,VWS V14.01,2013-07-08 16:51:00,
2013-07-08 12:56:00,83.6,74.8,30.00,SW,216,5.0,7.0,75,0.00,,SKC,0.56,VWS V14.01,2013-07-08 16:56:00,
2013-07-08 13:01:00,83.4,74.7,30.00,SW,232,6.0,9.0,75,0.00,,SKC,0.56,VWS V14.01,2013-07-08 17:01:00,
2013-07-08 13:06:00,83.4,74.7,29.99,SSW,211,10.0,13.0,75,0.00,,SKC,0.56,VWS V14.01,2013-07-08 17:06:00,
2013-07-08 13:12:00,83.7,74.9,29.99,SW,224,6.0,11.0,75,0.00,,SKC,0.56,VWS V14.01,2013-07-08 17:12:00,
2013-07-08 13:17:00,84.0,74.4,29.99,WSW,252,9.0,14.0,73,0.00,,SKC,0.56,VWS V14.01,2013-07-08 17:17:00,
2013-07-08 13:22:00,84.2,75.0,29.99,WSW,240,9.0,14.0,74,0.00,,SKC,0.56,VWS V14.01,2013-07-08 17:22:00,
2013-07-08 13:27:00,84.7,76.3,29.99,WSW,252,10.0,13.0,76,0.00,,SKC,0.56,VWS V14.01,2013-07-08 17:27:00,
2013-07-08 13:32:00,84.8,75.6,29.99,SW,229,8.0,11.0,74,0.00,,SKC,0.56,VWS V14.01,2013-07-08 17:32:00,
2013-07-08 13:38:00,84.7,75.5,29.99,SSW,204,8.0,10.0,74,0.00,,SKC,0.56,VWS V14.01,2013-07-08 17:38:00,
2013-07-08 13:43:00,84.3,75.5,29.98,WSW,244,3.0,5.0,75,0.00,,SKC,0.56,VWS V14.01,2013-07-08 17:43:00,
2013-07-08 13:48:00,84.7,75.5,29.98,SW,226,5.0,9.0,74,0.00,,SKC,0.56,VWS V14.01,2013-07-08 17:48:00,
2013-07-08 13:53:00,84.6,75.0,29.98,WSW,237,10.0,15.0,73,0.00,,SKC,0.56,VWS V14.01,2013-07-08 17:53:00,
2013-07-08 13:58:00,84.4,74.8,29.98,SW,235,7.0,12.0,73,0.00,,SKC,0.56,VWS V14.01,2013-07-08 17:58:00,
2013-07-08 14:03:00,84.3,75.1,29.98,SW,228,4.0,9.0,74,0.00,,SKC,0.56,VWS V14.01,2013-07-08 18:03:00,
2013-07-08 14:09:00,84.0,74.4,29.97,SW,232,6.0,9.0,73,0.00,,SKC,0.56,VWS V14.01,2013-07-08 18:09:00,
2013-07-08 14:14:00,83.8,74.6,29.97,WSW,243,4.0,8.0,74,0.00,,SKC,0.56,VWS V14.01,2013-07-08 18:14:00,
2013-07-08 14:20:00,83.6,75.2,29.97,SW,236,9.0,14.0,76,0.00,,SKC,0.56,VWS V14.01,2013-07-08 18:20:00,
2013-07-08 14:26:00,83.6,75.2,29.97,SW,234,9.0,14.0,76,0.00,,SKC,0.56,VWS V14.01,2013-07-08 18:26:00,
2013-07-08 14:31:00,83.6,74.4,29.97,WSW,246,10.0,16.0,74,0.00,,SKC,0.56,VWS V14.01,2013-07-08 18:31:00,
2013-07-08 14:36:00,84.0,76.0,29.97,WSW,251,10.0,10.0,77,0.00,,SKC,0.56,VWS V14.01,2013-07-08 18:36:00,
2013-07-08 14:41:00,84.5,74.5,29.97,SW,225,10.0,16.0,72,0.00,,SKC,0.56,VWS V14.01,2013-07-08 18:41:00,
2013-07-08 14:46:00,84.5,73.7,29.97,WSW,240,8.0,13.0,70,0.00,,SKC,0.56,VWS V14.01,2013-07-08 18:46:00,
2013-07-08 14:51:00,84.3,73.9,29.97,SW,227,16.0,16.0,71,0.00,,SKC,0.56,VWS V14.01,2013-07-08 18:51:00,
2013-07-08 14:56:00,84.3,74.7,29.97,SW,228,14.0,15.0,73,0.00,,SKC,0.56,VWS V14.01,2013-07-08 18:56:00,
2013-07-08 15:01:00,84.6,74.6,29.97,SW,219,7.0,18.0,72,0.00,,SKC,0.56,VWS V14.01,2013-07-08 19:01:00,
2013-07-08 15:06:00,84.5,74.1,29.97,WSW,247,17.0,19.0,71,0.00,,SKC,0.56,VWS V14.01,2013-07-08 19:06:00,
2013-07-08 15:11:00,84.7,74.3,29.97,SW,230,6.0,9.0,71,0.00,,SKC,0.56,VWS V14.01,2013-07-08 19:11:00,
2013-07-08 15:17:00,84.4,74.0,29.97,SW,236,13.0,16.0,71,0.00,,SKC,0.56,VWS V14.01,2013-07-08 19:17:00,
2013-07-08 15:22:00,84.2,73.4,29.98,WSW,238,9.0,14.0,70,0.00,,SKC,0.56,VWS V14.01,2013-07-08 19:22:00,
2013-07-08 15:28:00,84.1,74.1,29.97,SW,223,8.0,14.0,72,0.00,,SKC,0.56,VWS V14.01,2013-07-08 19:28:00,
2013-07-08 15:33:00,83.4,74.2,29.97,WSW,244,12.0,13.0,74,0.00,,SKC,0.56,VWS V14.01,2013-07-08 19:33:00,
2013-07-08 15:38:00,82.7,73.6,29.98,SW,231,8.0,14.0,74,0.00,,SKC,0.56,VWS V14.01,2013-07-08 19:38:00,
2013-07-08 15:43:00,82.1,73.8,29.98,West,268,9.0,12.0,76,0.00,,SKC,0.56,VWS V14.01,2013-07-08 19:43:00,
2013-07-08 15:48:00,81.4,73.5,29.98,SW,236,6.0,13.0,77,0.00,,SKC,0.56,VWS V14.01,2013-07-08 19:48:00,
2013-07-08 15:54:00,80.7,72.8,29.97,WSW,241,12.0,12.0,77,0.00,,SKC,0.56,VWS V14.01,2013-07-08 19:54:00,
2013-07-08 15:59:00,80.0,72.2,29.97,SW,219,7.0,14.0,77,0.00,,SKC,0.56,VWS V14.01,2013-07-08 19:59:00,
2013-07-08 16:04:00,79.4,72.3,29.97,SW,232,8.0,10.0,79,0.00,,SKC,0.56,VWS V14.01,2013-07-08 20:04:00,
2013-07-08 16:09:00,79.3,72.6,29.97,WSW,242,3.0,8.0,80,0.00,,SKC,0.56,VWS V14.01,2013-07-08 20:09:00,
2013-07-08 16:14:00,79.2,72.9,29.97,SW,225,3.0,6.0,81,0.00,,SKC,0.56,VWS V14.01,2013-07-08 20:14:00,
2013-07-08 16:19:00,78.9,72.9,29.96,SW,217,6.0,10.0,82,0.00,,SKC,0.56,VWS V14.01,2013-07-08 20:19:00,
2013-07-08 16:24:00,78.7,72.8,29.96,WSW,256,8.0,8.0,82,0.00,,SKC,0.56,VWS V14.01,2013-07-08 20:24:00,
2013-07-08 16:29:00,78.4,72.4,29.96,WSW,242,5.0,10.0,82,0.00,,SKC,0.56,VWS V14.01,2013-07-08 20:29:00,
2013-07-08 16:34:00,78.1,72.2,29.96,SSW,213,7.0,9.0,82,0.00,,SKC,0.56,VWS V14.01,2013-07-08 20:34:00,
2013-07-08 16:40:00,77.9,72.3,29.95,SSW,211,6.0,6.0,83,0.00,,SKC,0.56,VWS V14.01,2013-07-08 20:40:00,
2013-07-08 16:45:00,77.8,72.2,29.95,SW,220,3.0,5.0,83,0.00,,SKC,0.56,VWS V14.01,2013-07-08 20:45:00,
2013-07-08 16:50:00,77.7,72.1,29.95,SW,222,3.0,6.0,83,0.00,,SKC,0.56,VWS V14.01,2013-07-08 20:50:00,
2013-07-08 16:55:00,77.5,72.3,29.95,SW,215,3.0,5.0,84,0.00,,SKC,0.56,VWS V14.01,2013-07-08 20:55:00,
2013-07-08 17:01:00,77.5,72.6,29.95,SSW,213,7.0,7.0,85,0.00,,SKC,0.56,VWS V14.01,2013-07-08 21:01:00,
2013-07-08 17:06:00,77.5,72.6,29.95,SSW,209,4.0,6.0,85,0.00,,SKC,0.56,VWS V14.01,2013-07-08 21:06:00,
2013-07-08 17:11:00,78.0,73.1,29.95,SW,229,5.0,6.0,85,0.00,,SKC,0.56,VWS V14.01,2013-07-08 21:11:00,
2013-07-08 17:16:00,78.5,73.3,29.95,SSW,208,5.0,7.0,84,0.00,,SKC,0.56,VWS V14.01,2013-07-08 21:16:00,
2013-07-08 17:22:00,78.8,72.8,29.95,SW,223,6.0,8.0,82,0.00,,SKC,0.56,VWS V14.01,2013-07-08 21:22:00,
2013-07-08 17:27:00,78.9,72.6,29.94,SSW,207,6.0,9.0,81,0.00,,SKC,0.56,VWS V14.01,2013-07-08 21:27:00,
2013-07-08 17:33:00,78.7,72.8,29.94,WSW,244,5.0,5.0,82,0.00,,SKC,0.56,VWS V14.01,2013-07-08 21:33:00,
2013-07-08 17:39:00,78.7,72.8,29.94,SW,230,3.0,5.0,82,0.00,,SKC,0.56,VWS V14.01,2013-07-08 21:39:00,
2013-07-08 17:44:00,79.0,73.0,29.93,WSW,250,3.0,5.0,82,0.00,,SKC,0.56,VWS V14.01,2013-07-08 21:44:00,
2013-07-08 17:49:00,79.0,73.0,29.94,SSW,213,7.0,9.0,82,0.00,,SKC,0.56,VWS V14.01,2013-07-08 21:49:00,
2013-07-08 17:54:00,79.2,72.9,29.93,South,184,3.0,5.0,81,0.00,,SKC,0.56,VWS V14.01,2013-07-08 21:54:00,
2013-07-08 17:59:00,78.8,72.8,29.93,South,184,5.0,6.0,82,0.00,,SKC,0.56,VWS V14.01,2013-07-08 21:59:00,
2013-07-08 18:05:00,78.6,73.0,29.92,South,180,2.0,3.0,83,0.00,,SKC,0.56,VWS V14.01,2013-07-08 22:05:00,
2013-07-08 18:10:00,78.2,72.6,29.93,South,191,9.0,9.0,83,0.00,,SKC,0.56,VWS V14.01,2013-07-08 22:10:00,
2013-07-08 18:15:00,78.1,72.5,29.93,SW,225,2.0,4.0,83,0.00,,SKC,0.56,VWS V14.01,2013-07-08 22:15:00,
2013-07-08 18:20:00,78.2,73.0,29.93,SSW,203,4.0,6.0,84,0.00,,SKC,0.56,VWS V14.01,2013-07-08 22:20:00,
2013-07-08 18:25:00,78.4,73.2,29.93,SW,221,3.0,5.0,84,0.00,,SKC,0.56,VWS V14.01,2013-07-08 22:25:00,
2013-07-08 18:30:00,78.4,72.8,29.93,SSW,199,4.0,6.0,83,0.00,,SKC,0.56,VWS V14.01,2013-07-08 22:30:00,
2013-07-08 18:35:00,78.4,73.2,29.93,SSW,198,4.0,7.0,84,0.00,,SKC,0.56,VWS V14.01,2013-07-08 22:35:00,
2013-07-08 18:41:00,78.2,73.3,29.93,South,190,4.0,7.0,85,0.00,,SKC,0.56,VWS V14.01,2013-07-08 22:41:00,
2013-07-08 18:46:00,78.2,73.3,29.93,SW,219,4.0,6.0,85,0.00,,SKC,0.56,VWS V14.01,2013-07-08 22:46:00,
2013-07-08 18:51:00,78.3,73.4,29.94,SSW,213,3.0,4.0,85,0.00,,SKC,0.56,VWS V14.01,2013-07-08 22:51:00,
2013-07-08 18:57:00,78.2,73.3,29.93,SSW,209,6.0,6.0,85,0.00,,SKC,0.56,VWS V14.01,2013-07-08 22:57:00,
2013-07-08 19:02:00,78.1,73.6,29.94,SW,235,1.0,5.0,86,0.00,,SKC,0.56,VWS V14.01,2013-07-08 23:02:00,
2013-07-08 19:07:00,78.1,73.6,29.94,WSW,242,6.0,6.0,86,0.01,,SKC,0.57,VWS V14.01,2013-07-08 23:07:00,
2013-07-08 19:13:00,77.9,74.0,29.95,WSW,243,3.0,9.0,87,0.01,,,0.57,weatherlink.com 1.10,2013-07-08 23:13:00,
2013-07-08 19:18:00,77.6,73.4,29.94,WSW,243,3.0,4.0,87,0.02,,SKC,0.58,VWS V14.01,2013-07-08 23:18:00,
2013-07-08 19:23:00,77.1,72.9,29.94,SW,234,2.0,2.0,87,0.03,,SKC,0.59,VWS V14.01,2013-07-08 23:23:00,
2013-07-08 19:29:00,76.6,72.8,29.94,SSW,207,0.0,1.0,88,0.05,,SKC,0.61,VWS V14.01,2013-07-08 23:29:00,
2013-07-08 19:34:00,76.4,72.9,29.94,SSW,207,0.0,0.0,89,0.06,,SKC,0.62,VWS V14.01,2013-07-08 23:34:00,
2013-07-08 19:39:00,76.3,72.8,29.94,SSW,207,1.0,2.0,89,0.07,,SKC,0.63,VWS V14.01,2013-07-08 23:39:00,
2013-07-08 19:44:00,76.1,73.0,29.94,SE,133,2.0,3.0,90,0.08,,SKC,0.64,VWS V14.01,2013-07-08 23:44:00,
2013-07-08 19:49:00,75.9,72.8,29.93,East,100,6.0,6.0,90,0.08,,SKC,0.64,VWS V14.01,2013-07-08 23:49:00,
2013-07-08 19:54:00,75.7,72.9,29.93,East,101,6.0,8.0,91,0.08,,SKC,0.64,VWS V14.01,2013-07-08 23:54:00,
2013-07-08 20:00:00,75.5,72.7,29.93,SE,142,2.0,3.0,91,0.08,,SKC,0.64,VWS V14.01,2013-07-09 00:00:00,
2013-07-08 20:06:00,75.5,73.0,29.94,South,171,4.0,5.0,92,0.08,,SKC,0.64,VWS V14.01,2013-07-09 00:06:00,
2013-07-08 20:11:00,75.4,72.9,29.93,SSW,199,7.0,7.0,92,0.10,,SKC,0.66,VWS V14.01,2013-07-09 00:11:00,
2013-07-08 20:16:00,75.2,72.7,29.93,SSE,153,5.0,7.0,92,0.11,,SKC,0.67,VWS V14.01,2013-07-09 00:16:00,
2013-07-08 20:21:00,74.9,72.4,29.93,SSE,153,5.0,8.0,92,0.11,,SKC,0.67,VWS V14.01,2013-07-09 00:21:00,
2013-07-08 20:27:00,74.9,72.4,29.93,SSE,154,3.0,5.0,92,0.11,,SKC,0.67,VWS V14.01,2013-07-09 00:27:00,
2013-07-08 20:32:00,74.9,72.1,29.92,SSE,160,6.0,8.0,91,0.06,,SKC,0.67,VWS V14.01,2013-07-09 00:32:00,
2013-07-08 20:37:00,74.8,72.0,29.92,SSE,166,4.0,9.0,91,0.06,,SKC,0.67,VWS V14.01,2013-07-09 00:37:00,
2013-07-08 20:42:00,74.7,71.9,29.93,SE,134,3.0,4.0,91,0.06,,SKC,0.67,VWS V14.01,2013-07-09 00:42:00,
2013-07-08 20:48:00,74.6,71.8,29.92,SSE,160,2.0,5.0,91,0.06,,SKC,0.67,VWS V14.01,2013-07-09 00:48:00,
2013-07-08 20:53:00,74.6,72.1,29.92,ESE,114,6.0,8.0,92,0.06,,SKC,0.67,VWS V14.01,2013-07-09 00:53:00,
2013-07-08 20:58:00,74.6,72.1,29.92,SE,144,5.0,9.0,92,0.06,,SKC,0.67,VWS V14.01,2013-07-09 00:58:00,
2013-07-08 21:03:00,74.6,72.4,29.92,SSE,161,1.0,2.0,93,0.03,,SKC,0.67,VWS V14.01,2013-07-09 01:03:00,
2013-07-08 21:08:00,74.6,72.4,29.92,SSE,165,0.0,4.0,93,0.03,,SKC,0.67,VWS V14.01,2013-07-09 01:08:00,
2013-07-08 21:14:00,74.6,72.4,29.92,SSE,165,1.0,4.0,93,0.03,,SKC,0.67,VWS V14.01,2013-07-09 01:14:00,
2013-07-08 21:19:00,74.5,72.7,29.91,SSE,163,1.0,2.0,94,0.03,,SKC,0.67,VWS V14.01,2013-07-09 01:19:00,
2013-07-08 21:24:00,74.3,72.5,29.91,SSE,157,2.0,5.0,94,0.03,,SKC,0.67,VWS V14.01,2013-07-09 01:24:00,
2013-07-08 21:29:00,74.2,72.4,29.91,SSE,158,1.0,4.0,94,0.03,,SKC,0.67,VWS V14.01,2013-07-09 01:29:00,
2013-07-08 21:34:00,74.0,72.2,29.91,SSE,147,2.0,4.0,94,0.00,,SKC,0.67,VWS V14.01,2013-07-09 01:34:00,
2013-07-08 21:40:00,73.9,72.1,29.92,South,191,2.0,9.0,94,0.00,,SKC,0.67,VWS V14.01,2013-07-09 01:40:00,
2013-07-08 21:45:00,73.9,72.1,29.92,SSE,165,1.0,4.0,94,0.00,,SKC,0.67,VWS V14.01,2013-07-09 01:45:00,
2013-07-08 21:50:00,73.8,72.0,29.93,SSE,163,0.0,2.0,94,0.00,,SKC,0.67,VWS V14.01,2013-07-09 01:50:00,
2013-07-08 21:55:00,73.8,72.0,29.92,SSE,163,0.0,1.0,94,0.00,,SKC,0.67,VWS V14.01,2013-07-09 01:55:00,
2013-07-08 22:00:00,73.8,72.0,29.92,SSE,157,0.0,1.0,94,0.00,,SKC,0.67,VWS V14.01,2013-07-09 02:00:00,
2013-07-08 22:06:00,73.7,71.9,29.92,SSE,147,0.0,2.0,94,0.00,,SKC,0.67,VWS V14.01,2013-07-09 02:06:00,
2013-07-08 22:11:00,73.7,71.9,29.92,SSE,150,0.0,1.0,94,0.00,,SKC,0.67,VWS V14.01,2013-07-09 02:11:00,
2013-07-08 22:16:00,73.7,71.9,29.93,SSE,157,0.0,1.0,94,0.00,,SKC,0.67,VWS V14.01,2013-07-09 02:16:00,
2013-07-08 22:21:00,73.7,71.9,29.93,SSE,157,0.0,2.0,94,0.00,,SKC,0.67,VWS V14.01,2013-07-09 02:21:00,
2013-07-08 22:26:00,73.7,71.9,29.92,SSE,157,0.0,0.0,94,0.00,,SKC,0.67,VWS V14.01,2013-07-09 02:26:00,
2013-07-08 22:32:00,73.7,71.9,29.92,SSE,157,0.0,1.0,94,0.00,,SKC,0.67,VWS V14.01,2013-07-09 02:32:00,
2013-07-08 22:37:00,73.7,71.9,29.92,SSE,161,0.0,0.0,94,0.00,,SKC,0.67,VWS V14.01,2013-07-09 02:37:00,
2013-07-08 22:42:00,73.6,71.8,29.92,South,173,0.0,3.0,94,0.00,,SKC,0.67,VWS V14.01,2013-07-09 02:42:00,
2013-07-08 22:47:00,73.6,71.8,29.92,South,173,0.0,2.0,94,0.00,,SKC,0.67,VWS V14.01,2013-07-09 02:47:00,
2013-07-08 22:53:00,73.7,72.2,29.92,South,171,0.0,1.0,95,0.00,,SKC,0.67,VWS V14.01,2013-07-09 02:53:00,
2013-07-08 22:58:00,73.8,72.3,29.91,South,172,1.0,5.0,95,0.00,,SKC,0.67,VWS V14.01,2013-07-09 02:58:00,
2013-07-08 23:03:00,73.8,72.3,29.92,South,171,0.0,1.0,95,0.00,,SKC,0.67,VWS V14.01,2013-07-09 03:03:00,
2013-07-08 23:08:00,73.9,72.4,29.92,South,170,0.0,0.0,95,0.00,,SKC,0.67,VWS V14.01,2013-07-09 03:08:00,
2013-07-08 23:14:00,74.1,72.6,29.92,SSW,196,2.0,4.0,95,0.00,,SKC,0.67,VWS V14.01,2013-07-09 03:14:00,
2013-07-08 23:19:00,74.2,72.7,29.92,SW,224,2.0,5.0,95,0.00,,SKC,0.67,VWS V14.01,2013-07-09 03:19:00,
2013-07-08 23:24:00,74.4,72.9,29.92,SW,228,6.0,6.0,95,0.00,,SKC,0.67,VWS V14.01,2013-07-09 03:24:00,
2013-07-08 23:30:00,74.6,73.1,29.93,WSW,240,1.0,4.0,95,0.00,,SKC,0.67,VWS V14.01,2013-07-09 03:30:00,
2013-07-08 23:35:00,74.7,72.9,29.93,SW,231,1.0,4.0,94,0.00,,SKC,0.67,VWS V14.01,2013-07-09 03:35:00,
2013-07-08 23:40:00,74.8,73.0,29.93,West,263,0.0,1.0,94,0.00,,SKC,0.67,VWS V14.01,2013-07-09 03:40:00,
2013-07-08 23:45:00,74.9,73.1,29.94,West,262,0.0,0.0,94,0.00,,SKC,0.67,VWS V14.01,2013-07-09 03:45:00,
2013-07-08 23:50:00,75.0,73.2,29.94,WSW,243,0.0,0.0,94,0.00,,SKC,0.67,VWS V14.01,2013-07-09 03:50:00,
2013-07-08 23:56:00,75.0,73.2,29.94,SSW,195,1.0,1.0,94,0.00,,SKC,0.67,VWS V14.01,2013-07-09 03:56:00,